This is the latest recevied weather packets stored in our database for station/object W9GWP. If no packets are shown the sender has not sent any weather packets the latest 10 day(s).
| Time | Temp. | Humidity | Pressure | Rain* | Wind** | Luminosity | Snow |
|---|---|---|---|---|---|---|---|
| 1777437012 | 13.33° C | 69% | 1042.8 hPa | 0 mm | - | 0 W/m² | - |
| 1777436108 | 13.89° C | 69% | 1042.5 hPa | 0 mm | - | 0 W/m² | - |
| 1777435208 | 13.89° C | 67% | 1042.8 hPa | 0 mm | - | 0 W/m² | - |
| 1777434304 | 14.44° C | 65% | 1042.9 hPa | 0 mm | - | 0 W/m² | - |
| 1777433399 | 14.44° C | 65% | 1042.5 hPa | 0 mm | - | 0 W/m² | - |
| 1777432498 | 14.44° C | 65% | 1042.3 hPa | 0 mm | - | 0 W/m² | - |
| 1777431596 | 14.44° C | 66% | 1042.4 hPa | 0 mm | - | 0 W/m² | - |
| 1777430696 | 14.44° C | 69% | 1042.6 hPa | 0 mm | - | 0 W/m² | - |
| 1777429795 | 15° C | 65% | 1042.4 hPa | 0 mm | - | 0 W/m² | - |
| 1777428895 | 14.44° C | 71% | 1042.3 hPa | 0 mm | - | 0 W/m² | - |
| 1777427993 | 14.44° C | 70% | 1042 hPa | 0 mm | - | 0 W/m² | - |
| 1777427088 | 14.44° C | 69% | 1041.8 hPa | 0 mm | - | 0 W/m² | - |
| 1777426184 | 14.44° C | 68% | 1041.6 hPa | 0 mm | - | 0 W/m² | - |
| 1777425282 | 14.44° C | 68% | 1041.5 hPa | 0 mm | - | 0 W/m² | - |
| 1777424382 | 15.56° C | 65% | 1041.5 hPa | 0 mm | - | 0 W/m² | - |
| 1777423478 | 15.56° C | 63% | 1041.4 hPa | 0 mm | - | 1 W/m² | - |
| 1777422575 | 16.11° C | 61% | 1041.2 hPa | 0 mm | - | 6 W/m² | - |
| 1777421672 | 16.67° C | 60% | 1041.4 hPa | 0 mm | - | 16 W/m² | - |
| 1777420772 | 16.67° C | 59% | 1041.6 hPa | 0 mm | - | 26 W/m² | - |
| 1777419866 | 16.67° C | 58% | 1041.7 hPa | 0 mm | - | 45 W/m² | - |
| 1777418966 | 16.67° C | 56% | 1041.8 hPa | 0 mm | - | 59 W/m² | - |
| 1777418065 | 17.22° C | 56% | 1041.3 hPa | 0 mm | - | 72 W/m² | - |
| 1777417159 | 17.78° C | 56% | 1041 hPa | 0 mm | - | 242 W/m² | - |
| 1777416259 | 17.78° C | 55% | 1040.9 hPa | 0 mm | - | 240 W/m² | - |
| 1777415356 | 17.78° C | 56% | 1041.5 hPa | 0 mm | - | 329 W/m² | - |
* Rain latest hour (hover to see other rain measurements)
** Current wind speed in m/s (hover to see current wind gust speed)